Time;durP1;ratioP1;P1;durP2;ratioP2;P2;SDS_P1;SDS_P2;PMS_P1;PMS_P2;Temp;Humidity;BMP_temperature;BMP_pressure;BME280_temperature;BME280_humidity;BME280_pressure;Samples;Min_cycle;Max_cycle;Signal;HPM_P1;HPM_P2
2021/12/13 04:53:19;;;;;;;22.52;11.35;;;;;;;-1.63;87.91;101050.59;5459508;28;20132;-82
2021/12/13 04:56:25;;;;;;;21.95;11.35;;;;;;;-1.69;89.42;101058.03;5307875;33;33778;-82
2021/12/13 04:59:29;;;;;;;19.12;10.52;;;;;;;-1.74;89.13;101052.97;5307350;33;34009;-81
2021/12/13 05:02:32;;;;;;;20.45;12.20;;;;;;;-1.72;89.26;101061.66;5307466;33;34525;-82
2021/12/13 05:05:37;;;;;;;18.73;11.12;;;;;;;-1.74;89.95;101066.16;5307226;33;34888;-82
2021/12/13 05:08:43;;;;;;;20.83;11.90;;;;;;;-1.65;89.29;101064.81;5301882;33;34121;-82
2021/12/13 05:11:50;;;;;;;23.98;11.45;;;;;;;-1.50;88.56;101071.06;5307991;33;34324;-82
2021/12/13 05:14:58;;;;;;;23.10;11.77;;;;;;;-1.55;88.52;101070.44;5308291;33;33882;-81
2021/12/13 05:18:04;;;;;;;23.23;12.98;;;;;;;-1.56;89.70;101079.31;5315596;33;34343;-81
2021/12/13 05:21:14;;;;;;;20.95;11.68;;;;;;;-1.42;89.23;101085.56;5322479;33;34927;-82
2021/12/13 05:24:23;;;;;;;20.50;11.70;;;;;;;-1.46;89.08;101094.59;5307222;33;34112;-82
2021/12/13 05:27:31;;;;;;;23.23;12.63;;;;;;;-1.39;89.94;101103.03;5313423;33;34536;-82
2021/12/13 05:30:40;;;;;;;21.52;13.25;;;;;;;-1.39;89.64;101105.66;5311829;33;34667;-82
2021/12/13 05:33:45;;;;;;;21.65;11.85;;;;;;;-1.32;90.05;101114.09;5307688;33;34816;-82
2021/12/13 05:36:57;;;;;;;24.75;13.35;;;;;;;-1.20;89.64;101116.94;5308722;33;34023;-85
2021/12/13 05:40:10;;;;;;;22.75;12.65;;;;;;;-1.22;89.16;101113.53;5308415;33;33730;-82
2021/12/13 05:43:18;;;;;;;22.70;12.02;;;;;;;-1.31;89.99;101116.66;5308780;33;34738;-82
2021/12/13 05:46:31;;;;;;;22.67;13.07;;;;;;;-1.31;90.20;101124.59;5307147;33;33834;-82
2021/12/13 05:49:42;;;;;;;22.85;12.27;;;;;;;-1.32;90.12;101120.22;5309021;33;35095;-82
2021/12/13 05:52:45;;;;;;;23.95;13.10;;;;;;;-1.22;89.59;101125.88;5305809;33;34571;-81
2021/12/13 05:55:56;;;;;;;26.62;13.02;;;;;;;-1.26;89.55;101125.19;5305455;33;34473;-82
2021/12/13 05:59:08;;;;;;;23.00;13.05;;;;;;;-1.29;89.81;101127.12;5305470;33;33951;-82
2021/12/13 06:02:15;;;;;;;23.45;13.15;;;;;;;-1.28;89.62;101121.78;5305547;33;34469;-82
2021/12/13 06:05:23;;;;;;;21.45;11.82;;;;;;;-1.33;89.89;101131.75;5305340;33;34461;-82
2021/12/13 06:08:30;;;;;;;23.33;11.93;;;;;;;-1.44;89.88;101134.94;5305212;33;34004;-82
2021/12/13 06:11:33;;;;;;;25.67;12.23;;;;;;;-1.49;90.15;101133.50;5305334;33;34596;-82
2021/12/13 06:14:37;;;;;;;24.10;13.15;;;;;;;-1.53;90.07;101138.09;5305287;33;34499;-82
2021/12/13 06:17:47;;;;;;;27.45;12.95;;;;;;;-1.51;90.01;101144.16;5304459;33;34762;-82
2021/12/13 06:21:12;;;;;;;22.60;12.23;;;;;;;-1.51;90.45;101151.22;5305937;33;33970;-82
2021/12/13 06:24:26;;;;;;;24.52;13.05;;;;;;;-1.58;90.84;101153.31;5306301;33;33964;-82
2021/12/13 06:27:45;;;;;;;23.17;12.70;;;;;;;-1.53;90.79;101155.72;5306628;33;34738;-82
2021/12/13 06:31:03;;;;;;;26.08;13.62;;;;;;;-1.59;91.07;101156.91;5305050;33;33946;-82
2021/12/13 06:34:09;;;;;;;28.23;13.95;;;;;;;-1.59;91.61;101154.25;5305849;33;34621;-83
2021/12/13 06:37:12;;;;;;;25.35;13.85;;;;;;;-1.47;91.37;101163.31;5306953;33;33529;-82
2021/12/13 06:40:27;;;;;;;26.67;14.38;;;;;;;-1.46;91.57;101162.41;5307597;33;35046;-82
2021/12/13 06:43:38;;;;;;;26.02;14.18;;;;;;;-1.47;92.16;101152.75;5305889;33;33954;-81
2021/12/13 06:47:01;;;;;;;27.98;15.43;;;;;;;-1.45;92.34;101161.47;5299396;33;34004;-82
2021/12/13 06:50:07;;;;;;;29.58;15.02;;;;;;;-1.52;92.11;101160.06;5306352;33;33906;-82
2021/12/13 06:53:19;;;;;;;28.45;14.20;;;;;;;-1.46;92.73;101163.25;5302800;33;128836;-82
2021/12/13 06:56:26;;;;;;;27.62;15.10;;;;;;;-1.40;92.62;101167.34;5306432;33;33517;-83
2021/12/13 06:59:31;;;;;;;29.95;15.30;;;;;;;-1.41;92.89;101166.47;5305920;33;33840;-82
2021/12/13 07:02:51;;;;;;;27.40;14.30;;;;;;;-1.28;92.81;101163.22;5304734;33;34423;-82
2021/12/13 07:05:58;;;;;;;30.45;15.38;;;;;;;-1.16;92.15;101160.75;5305601;33;33509;-82
2021/12/13 07:09:13;;;;;;;27.52;15.55;;;;;;;-1.00;91.88;101160.75;5316361;33;34469;-82
2021/12/13 07:12:17;;;;;;;31.15;15.57;;;;;;;-0.97;91.42;101171.12;5309945;33;34326;-82
2021/12/13 07:15:26;;;;;;;28.87;15.02;;;;;;;-0.79;90.43;101165.78;5305298;33;33923;-82
2021/12/13 07:18:56;;;;;;;28.48;15.43;;;;;;;-0.72;89.79;101167.16;5306408;33;34730;-86
2021/12/13 07:22:05;;;;;;;28.25;15.27;;;;;;;-0.50;88.91;101162.37;5316466;33;33995;-82
2021/12/13 07:25:17;;;;;;;29.15;15.38;;;;;;;-0.44;88.75;101163.78;5319714;33;33901;-82
2021/12/13 07:28:35;;;;;;;30.62;15.55;;;;;;;-0.25;87.52;101169.72;5323440;33;34421;-82
2021/12/13 07:31:41;;;;;;;29.73;14.95;;;;;;;-0.14;86.93;101168.28;5324802;33;33842;-82
2021/12/13 07:34:57;;;;;;;26.65;14.27;;;;;;;-0.07;86.43;101170.44;5316691;33;34698;-82
2021/12/13 07:38:02;;;;;;;29.00;15.48;;;;;;;0.16;85.38;101173.53;5312287;33;33834;-82
2021/12/13 07:41:07;;;;;;;28.23;14.87;;;;;;;0.13;85.80;101179.87;5313365;33;33411;-82
2021/12/13 07:44:41;;;;;;;26.12;14.07;;;;;;;0.20;85.53;101178.53;5316143;33;35649;-82
2021/12/13 07:47:45;;;;;;;32.83;15.07;;;;;;;0.34;84.95;101187.47;5309208;33;33625;-82
2021/12/13 07:51:03;;;;;;;24.50;14.05;;;;;;;0.36;84.12;101194.38;5323987;33;34126;-82
2021/12/13 07:54:13;;;;;;;29.12;15.00;;;;;;;0.47;83.95;101201.69;5323664;33;34150;-82
2021/12/13 07:57:19;;;;;;;;;;;;;;;0.44;83.32;101201.88;5311527;33;33971;-86
2021/12/13 08:00:28;;;;;;;27.13;15.27;;;;;;;0.57;82.95;101202.81;5324108;33;34794;-86
2021/12/13 08:03:33;;;;;;;27.48;14.77;;;;;;;0.56;82.06;101201.12;5321726;33;34050;-83
2021/12/13 08:06:47;;;;;;;27.13;14.27;;;;;;;0.65;81.84;101194.41;5316619;33;34669;-83
2021/12/13 08:10:00;;;;;;;29.63;14.27;;;;;;;0.67;81.31;101205.75;5324472;33;35168;-83
2021/12/13 08:13:10;;;;;;;29.58;14.90;;;;;;;0.66;81.66;101204.06;5308999;33;34220;-82
2021/12/13 08:16:13;;;;;;;25.62;14.07;;;;;;;0.77;81.07;101206.06;5307856;33;33880;-82
2021/12/13 08:19:25;;;;;;;30.58;14.23;;;;;;;0.78;79.90;101207.75;5307758;33;33977;-82
2021/12/13 08:22:29;;;;;;;27.60;14.18;;;;;;;0.78;80.66;101213.06;5308732;33;34119;-82
2021/12/13 08:25:39;;;;;;;30.27;15.38;;;;;;;0.75;80.16;101221.19;5308860;33;34560;-82
2021/12/13 08:28:46;;;;;;;27.98;15.77;;;;;;;0.75;80.79;101214.09;5310654;33;33592;-82
2021/12/13 08:31:56;;;;;;;28.38;15.18;;;;;;;0.83;80.65;101218.94;5324031;33;34377;-82
2021/12/13 08:35:01;;;;;;;27.65;15.45;;;;;;;0.87;80.51;101209.84;5325096;33;35351;-82
2021/12/13 08:38:04;;;;;;;27.87;14.93;;;;;;;1.04;80.60;101225.56;5325637;33;33898;-82
2021/12/13 08:41:22;;;;;;;30.00;14.85;;;;;;;1.19;80.15;101228.19;5310182;33;34121;-82
2021/12/13 08:44:29;;;;;;;29.48;15.82;;;;;;;1.45;78.78;101242.47;5321418;33;34558;-83
2021/12/13 08:47:50;;;;;;;29.80;15.65;;;;;;;1.52;79.34;101233.16;5319288;33;34001;-82
2021/12/13 08:50:57;;;;;;;33.35;16.70;;;;;;;1.69;78.20;101232.06;5319451;33;33627;-80
2021/12/13 08:54:10;;;;;;;27.08;15.43;;;;;;;1.77;77.83;101235.91;5318973;33;33537;-81
2021/12/13 08:57:36;;;;;;;33.65;15.80;;;;;;;1.95;77.29;101241.81;5320082;33;34412;-85
2021/12/13 09:00:48;;;;;;;26.95;15.85;;;;;;;2.02;77.37;101229.87;5310432;33;33736;-83
2021/12/13 09:03:52;;;;;;;28.83;15.52;;;;;;;2.18;76.82;101234.16;5299883;33;34419;-83
2021/12/13 09:06:58;;;;;;;29.08;15.85;;;;;;;2.32;76.00;101230.56;5309838;33;34839;-84
2021/12/13 09:10:03;;;;;;;28.00;15.35;;;;;;;2.42;75.77;101237.78;5307780;33;34181;-83
2021/12/13 09:13:10;;;;;;;28.35;14.77;;;;;;;2.55;75.49;101229.84;5298738;33;34607;-82
2021/12/13 09:16:19;;;;;;;22.50;14.52;;;;;;;2.57;74.91;101235.91;5305174;33;34490;-82
2021/12/13 09:19:28;;;;;;;29.55;15.38;;;;;;;2.78;74.60;101227.38;5309140;33;33940;-83
2021/12/13 09:22:38;;;;;;;27.77;14.43;;;;;;;2.77;74.48;101231.88;5308621;33;33961;-83
2021/12/13 09:25:41;;;;;;;25.90;15.18;;;;;;;2.71;74.31;101235.78;5306657;33;34419;-82
2021/12/13 09:28:49;;;;;;;26.05;14.80;;;;;;;2.84;74.31;101221.69;5309125;33;33991;-83
2021/12/13 09:31:52;;;;;;;25.17;14.05;;;;;;;2.95;74.45;101222.63;5313883;33;35319;-83
2021/12/13 09:35:44;;;;;;;25.42;14.55;;;;;;;3.03;74.07;101227.38;5315222;33;34425;-83
2021/12/13 09:39:12;;;;;;;27.40;14.73;;;;;;;3.03;73.40;101214.09;5310521;33;33863;-81
2021/12/13 09:42:16;;;;;;;27.90;14.90;;;;;;;3.12;72.92;101210.75;5316142;33;34539;-82
2021/12/13 09:45:27;;;;;;;26.02;15.13;;;;;;;3.28;73.11;101202.56;5316418;33;35058;-82
2021/12/13 09:48:42;;;;;;;29.48;15.77;;;;;;;3.29;72.48;101208.72;5314000;33;34060;-82
2021/12/13 09:51:51;;;;;;;25.67;14.45;;;;;;;3.39;72.43;101201.75;5308826;33;34114;-84
2021/12/13 09:55:08;;;;;;;25.55;14.95;;;;;;;3.51;71.27;101194.69;5296794;33;33861;-84
2021/12/13 09:58:16;;;;;;;21.73;12.63;;;;;;;3.62;70.83;101192.94;5309054;33;33623;-84
2021/12/13 10:01:49;;;;;;;28.85;14.25;;;;;;;3.52;70.16;101194.59;5310199;33;34642;-83
2021/12/13 10:04:53;;;;;;;28.40;14.25;;;;;;;3.61;70.51;101179.75;5287138;33;33499;-83
2021/12/13 10:08:02;;;;;;;24.67;13.10;;;;;;;3.66;70.44;101190.03;5310373;33;34157;-84
2021/12/13 10:11:10;;;;;;;25.85;14.25;;;;;;;3.68;70.07;101183.66;5310233;33;34685;-84
2021/12/13 10:14:18;;;;;;;26.73;13.82;;;;;;;3.72;69.85;101182.47;5306775;33;34532;-83
2021/12/13 10:17:27;;;;;;;26.35;14.13;;;;;;;3.87;68.42;101186.66;5306652;33;34187;-84
2021/12/13 10:20:36;;;;;;;28.45;13.90;;;;;;;3.90;69.19;101190.06;5306353;33;34389;-84
2021/12/13 10:23:46;;;;;;;23.55;13.43;;;;;;;3.91;68.83;101191.75;5306691;33;34627;-83
2021/12/13 10:27:01;;;;;;;30.37;15.05;;;;;;;3.83;69.34;101185.19;5315822;33;34208;-83
2021/12/13 10:30:23;;;;;;;25.60;14.82;;;;;;;4.05;69.58;101181.75;5316339;33;35113;-84
2021/12/13 10:33:27;;;;;;;25.50;15.18;;;;;;;4.02;69.42;101182.00;5308819;33;34753;-84
2021/12/13 10:36:32;;;;;;;22.52;13.52;;;;;;;3.95;69.03;101178.09;5307263;33;34727;-83
2021/12/13 10:39:46;;;;;;;24.73;14.23;;;;;;;3.90;69.62;101176.75;5308236;33;34021;-83
2021/12/13 10:42:54;;;;;;;25.65;14.32;;;;;;;4.09;68.76;101174.38;5308719;33;33913;-83
2021/12/13 10:46:03;;;;;;;26.42;14.07;;;;;;;4.15;69.10;101175.72;5307182;33;33864;-83
2021/12/13 10:49:12;;;;;;;25.75;14.52;;;;;;;4.25;69.37;101174.06;5308594;33;33932;-84
2021/12/13 10:52:23;;;;;;;29.75;15.30;;;;;;;4.35;68.73;101174.22;5308434;33;35294;-82
2021/12/13 10:55:31;;;;;;;26.00;14.35;;;;;;;4.39;67.86;101160.53;5331359;33;33436;-82
2021/12/13 10:58:39;;;;;;;29.33;14.05;;;;;;;4.36;68.17;101166.09;5324157;33;34369;-82
2021/12/13 11:01:46;;;;;;;24.95;13.73;;;;;;;4.55;67.61;101153.03;5303072;33;34144;-82
2021/12/13 11:05:04;;;;;;;25.92;14.18;;;;;;;4.66;67.27;101159.34;5295122;33;33933;-82
2021/12/13 11:08:10;;;;;;;25.15;13.65;;;;;;;4.75;66.66;101161.28;5305002;33;35015;-82
2021/12/13 11:11:23;;;;;;;24.08;12.48;;;;;;;4.69;67.66;101159.94;5305716;33;34079;-82
2021/12/13 11:14:27;;;;;;;23.02;13.32;;;;;;;4.87;66.77;101154.97;5308681;33;35164;-82
2021/12/13 11:17:34;;;;;;;27.50;13.93;;;;;;;4.99;65.74;101153.16;5308350;33;33582;-82
2021/12/13 11:20:41;;;;;;;27.40;14.68;;;;;;;5.19;65.10;101144.38;5309875;33;34447;-87
2021/12/13 11:23:45;;;;;;;27.92;12.73;;;;;;;5.46;64.24;101143.94;5308421;33;33931;-83
2021/12/13 11:26:51;;;;;;;24.90;13.38;;;;;;;5.50;63.24;101149.03;5311194;33;34832;-83
2021/12/13 11:29:54;;;;;;;25.58;14.30;;;;;;;5.71;63.00;101151.78;5311624;33;34271;-82
2021/12/13 11:32:57;;;;;;;30.00;14.63;;;;;;;5.66;62.73;101157.50;5310150;33;33515;-83
2021/12/13 11:36:06;;;;;;;23.73;13.88;;;;;;;6.30;61.81;101165.50;5311092;33;33860;-82
2021/12/13 11:39:29;;;;;;;18.98;11.02;;;;;;;6.63;59.92;101166.25;5310399;33;34538;-83
2021/12/13 11:43:03;;;;;;;23.23;13.45;;;;;;;6.78;58.78;101162.22;5314438;33;34768;-82
2021/12/13 11:46:45;;;;;;;22.62;12.37;;;;;;;6.75;58.62;101158.97;5291330;33;33700;-84
2021/12/13 11:50:12;;;;;;;28.10;13.45;;;;;;;6.78;58.12;101156.88;5303972;33;33834;-83
2021/12/13 11:53:53;;;;;;;24.33;13.65;;;;;;;7.07;57.57;101148.09;5322333;33;34319;-84
2021/12/13 11:57:33;;;;;;;21.65;12.05;;;;;;;7.16;56.67;101157.16;5325761;33;34692;-83
2021/12/13 12:01:04;;;;;;;24.30;11.55;;;;;;;7.29;55.69;101152.41;5326687;33;34645;-84
2021/12/13 12:04:07;;;;;;;22.33;12.48;;;;;;;7.43;56.10;101151.16;5325635;33;33374;-83
2021/12/13 12:07:13;;;;;;;20.95;11.52;;;;;;;8.09;55.33;101145.13;5311844;33;34519;-83
2021/12/13 12:10:46;;;;;;;26.87;14.32;;;;;;;8.29;52.74;101149.47;5307282;33;33653;-83
2021/12/13 12:14:06;;;;;;;23.17;12.57;;;;;;;8.88;51.34;101142.09;5312295;33;35206;-83
2021/12/13 12:17:11;;;;;;;20.95;12.32;;;;;;;9.52;49.27;101146.56;5307809;33;34439;-84
2021/12/13 12:20:20;;;;;;;22.10;12.32;;;;;;;9.30;50.24;101144.28;5315217;33;33883;-84
2021/12/13 12:23:28;;;;;;;22.67;13.48;;;;;;;9.46;50.08;101146.31;5315851;33;34529;-88
2021/12/13 12:26:31;;;;;;;23.45;13.38;;;;;;;9.43;49.64;101142.09;5315997;33;33775;-84
2021/12/13 12:29:38;;;;;;;21.55;12.70;;;;;;;9.44;49.16;101143.78;5317962;33;34047;-84
2021/12/13 12:32:45;;;;;;;24.12;12.23;;;;;;;10.39;47.31;101144.16;5317989;33;33950;-84
2021/12/13 12:35:48;;;;;;;19.45;12.18;;;;;;;12.07;43.54;101140.69;5315611;33;34267;-84
2021/12/13 12:39:03;;;;;;;23.12;12.77;;;;;;;12.79;41.59;101147.00;5317767;33;34668;-84
2021/12/13 12:42:24;;;;;;;19.45;11.73;;;;;;;13.66;38.47;101148.81;5315637;33;34171;-83
2021/12/13 12:45:29;;;;;;;22.13;10.68;;;;;;;13.43;38.44;101143.41;5309086;33;34002;-84
2021/12/13 12:48:44;;;;;;;21.42;10.90;;;;;;;14.25;37.60;101143.62;5311803;33;34308;-87
2021/12/13 12:51:49;;;;;;;19.95;10.18;;;;;;;14.50;35.86;101133.38;5319807;33;34004;-87
2021/12/13 12:54:54;;;;;;;18.70;9.85;;;;;;;13.95;37.08;101132.72;5316485;33;33645;-89
2021/12/13 12:57:58;;;;;;;21.35;10.23;;;;;;;13.12;38.41;101128.78;5316050;33;33415;-86
2021/12/13 13:01:12;;;;;;;18.62;11.50;;;;;;;12.24;39.46;101131.56;5307197;33;33395;-86
2021/12/13 13:04:22;;;;;;;19.08;11.35;;;;;;;9.84;45.14;101138.97;5314196;33;34116;-86
2021/12/13 13:07:32;;;;;;;20.67;11.65;;;;;;;8.61;48.58;101137.56;5323904;33;33939;-85
2021/12/13 13:13:44;;;;;;;21.33;11.98;;;;;;;6.66;55.30;101154.44;5325410;33;34326;-84
2021/12/13 13:16:58;;;;;;;21.85;11.50;;;;;;;6.16;57.12;101159.63;5313941;33;33862;-84
2021/12/13 13:20:08;;;;;;;22.67;11.32;;;;;;;5.57;58.93;101156.44;5307587;33;33425;-85
2021/12/13 13:23:13;;;;;;;21.03;11.57;;;;;;;5.11;60.67;101167.34;5307180;33;34724;-89
2021/12/13 13:26:19;;;;;;;22.02;11.93;;;;;;;4.97;61.74;101165.75;5306713;33;33662;-83
2021/12/13 13:29:23;;;;;;;23.83;12.15;;;;;;;4.59;62.82;101158.97;5289866;33;34233;-84
2021/12/13 13:32:27;;;;;;;26.25;11.68;;;;;;;4.66;63.03;101172.69;5306145;33;33911;-85
2021/12/13 13:35:31;;;;;;;21.90;11.90;;;;;;;4.51;63.38;101178.25;5308065;33;33027;-83
2021/12/13 13:38:38;;;;;;;20.88;10.55;;;;;;;4.42;63.69;101180.78;5307841;33;34797;-83
2021/12/13 13:41:42;;;;;;;23.25;11.85;;;;;;;4.31;63.73;101189.59;5313613;33;33727;-83
2021/12/13 13:44:52;;;;;;;23.00;11.35;;;;;;;4.18;65.40;101183.47;5318088;33;33949;-83
2021/12/13 13:48:04;;;;;;;22.80;11.30;;;;;;;4.06;65.21;101194.09;5298223;33;35071;-83
2021/12/13 13:51:12;;;;;;;18.35;10.90;;;;;;;3.93;65.94;101184.50;5312130;33;34252;-83
2021/12/13 13:54:15;;;;;;;20.60;11.12;;;;;;;3.82;66.20;101191.47;5323028;33;34357;-83
2021/12/13 13:57:26;;;;;;;21.87;11.00;;;;;;;3.77;66.17;101188.31;5311584;33;33932;-83
2021/12/13 14:00:44;;;;;;;19.80;11.20;;;;;;;3.67;67.23;101192.63;5310238;33;34112;-83
2021/12/13 14:03:54;;;;;;;19.77;11.02;;;;;;;3.57;67.11;101196.94;5310486;33;33979;-83
2021/12/13 14:07:07;;;;;;;17.57;9.20;;;;;;;3.43;67.97;101197.94;5306544;33;33974;-83
2021/12/13 14:10:15;;;;;;;19.75;10.48;;;;;;;3.31;68.23;101198.81;5307482;33;34515;-83
2021/12/13 14:13:20;;;;;;;22.45;10.40;;;;;;;3.31;68.43;101196.16;5309502;33;33571;-83
2021/12/13 14:16:25;;;;;;;17.95;10.05;;;;;;;3.15;69.03;101191.91;5307636;33;33652;-83
2021/12/13 14:19:35;;;;;;;20.88;10.82;;;;;;;3.20;68.97;101194.25;5308070;33;34562;-82
2021/12/13 14:22:38;;;;;;;19.40;9.93;;;;;;;3.10;69.29;101203.84;5314881;33;33850;-83
2021/12/13 14:25:52;;;;;;;19.35;10.27;;;;;;;2.99;70.41;101201.97;5325613;33;33697;-83
2021/12/13 14:29:05;;;;;;;22.55;10.73;;;;;;;2.93;69.69;101203.25;5326174;33;34120;-87
2021/12/13 14:32:11;;;;;;;20.48;10.90;;;;;;;2.83;70.89;101202.19;5309644;33;35034;-84
2021/12/13 14:35:14;;;;;;;20.40;11.05;;;;;;;2.81;71.18;101203.25;5306015;33;34304;-83
2021/12/13 14:38:17;;;;;;;21.25;10.60;;;;;;;2.82;71.40;101208.47;5310477;33;34659;-83
2021/12/13 14:41:24;;;;;;;19.65;10.30;;;;;;;2.77;71.37;101215.91;5310001;33;34016;-83
2021/12/13 14:44:34;;;;;;;22.35;10.73;;;;;;;2.61;73.53;101208.16;5308367;33;34410;-83
2021/12/13 14:47:41;;;;;;;25.60;11.38;;;;;;;2.63;72.70;101208.03;5306023;33;33581;-83
2021/12/13 14:50:50;;;;;;;20.65;11.30;;;;;;;2.57;73.23;101216.44;5302220;33;33645;-83
2021/12/13 14:53:59;;;;;;;22.55;11.32;;;;;;;2.53;72.94;101215.81;5306634;33;34035;-83
2021/12/13 14:57:07;;;;;;;22.85;11.15;;;;;;;2.40;73.92;101209.63;5309416;33;34785;-82
2021/12/13 15:00:19;;;;;;;19.10;10.65;;;;;;;2.42;73.68;101219.19;5314881;33;33548;-82
2021/12/13 15:03:24;;;;;;;20.12;11.68;;;;;;;2.33;74.94;101217.16;5314853;33;33693;-82
2021/12/13 15:06:27;;;;;;;23.33;11.40;;;;;;;2.28;75.29;101224.59;5305170;33;33522;-83
2021/12/13 15:09:58;;;;;;;27.60;11.73;;;;;;;2.18;75.62;101226.19;5305233;33;33491;-82
2021/12/13 15:13:03;;;;;;;23.30;12.10;;;;;;;1.97;77.22;101233.78;5304979;33;33573;-82
2021/12/13 15:16:09;;;;;;;23.58;12.68;;;;;;;1.98;78.05;101238.97;5305740;33;34697;-82
2021/12/13 15:19:18;;;;;;;26.55;12.90;;;;;;;2.07;77.46;101244.63;5305375;33;34467;-82
2021/12/13 15:22:22;;;;;;;25.50;13.73;;;;;;;1.99;78.01;101253.97;5305859;33;33488;-82
2021/12/13 15:25:59;;;;;;;25.27;13.02;;;;;;;1.87;79.43;101252.09;5302933;33;34106;-82
2021/12/13 15:29:23;;;;;;;23.75;13.38;;;;;;;1.78;80.05;101248.25;5284854;33;33969;-82
2021/12/13 15:32:27;;;;;;;24.20;13.30;;;;;;;1.87;80.53;101253.91;5301551;33;33855;-82
2021/12/13 15:35:42;;;;;;;26.48;13.93;;;;;;;1.81;81.08;101257.81;5311515;33;34042;-83
2021/12/13 15:38:47;;;;;;;27.90;14.57;;;;;;;1.87;81.53;101267.19;5305085;33;35560;-82
2021/12/13 15:41:54;;;;;;;29.48;14.40;;;;;;;1.76;81.74;101263.44;5306245;33;33639;-82
2021/12/13 15:45:37;;;;;;;;;;;;;;;1.78;82.75;101264.19;5306265;33;34879;-82
2021/12/13 15:52:13;;;;;;;26.45;15.05;;;;;;;1.70;83.09;101263.84;5307117;33;33890;-82
2021/12/13 15:55:16;;;;;;;26.25;15.43;;;;;;;1.64;83.88;101273.97;5304566;33;34523;-82
2021/12/13 15:58:25;;;;;;;29.55;15.07;;;;;;;1.61;84.28;101266.19;5307593;33;34714;-82
2021/12/13 16:01:33;;;;;;;29.12;16.15;;;;;;;1.43;85.83;101274.37;5307406;33;34005;-82
2021/12/13 16:04:41;;;;;;;32.25;16.37;;;;;;;1.46;86.34;101278.66;5307362;33;33868;-86
2021/12/13 16:07:44;;;;;;;32.08;16.45;;;;;;;1.40;87.08;101277.22;5306570;33;34557;-83
2021/12/13 16:10:47;;;;;;;32.58;16.83;;;;;;;1.29;86.99;101280.56;5306974;33;33868;-83
2021/12/13 16:13:52;;;;;;;31.25;17.67;;;;;;;1.20;87.96;101280.28;5307877;33;33463;-83
2021/12/13 16:16:59;;;;;;;32.90;17.25;;;;;;;1.05;89.04;101269.69;5307524;33;34500;-83
2021/12/13 16:20:25;;;;;;;32.28;17.55;;;;;;;1.11;89.25;101279.94;5307562;33;33557;-83
2021/12/13 16:23:28;;;;;;;32.30;17.27;;;;;;;1.03;89.67;101279.53;5307732;33;33588;-82
2021/12/13 16:26:38;;;;;;;33.92;17.48;;;;;;;1.06;90.00;101286.47;5307395;33;33895;-83
2021/12/13 16:29:41;;;;;;;33.20;17.45;;;;;;;1.14;89.63;101286.81;5307253;33;34556;-83
2021/12/13 16:32:45;;;;;;;34.15;17.83;;;;;;;1.07;89.78;101282.84;5308520;33;35059;-83
2021/12/13 16:35:53;;;;;;;33.17;17.80;;;;;;;0.94;90.51;101285.41;5309197;33;33549;-83
2021/12/13 16:39:01;;;;;;;34.05;17.17;;;;;;;1.00;90.31;101297.44;5309621;33;34366;-83
2021/12/13 16:42:10;;;;;;;31.90;17.87;;;;;;;0.94;91.00;101295.13;5309144;33;34599;-83
2021/12/13 16:45:13;;;;;;;31.45;18.30;;;;;;;0.93;91.09;101293.44;5311215;33;34550;-83
2021/12/13 16:48:27;;;;;;;34.58;18.15;;;;;;;1.02;90.99;101296.38;5322017;33;34124;-83
2021/12/13 16:51:36;;;;;;;31.35;17.30;;;;;;;1.08;91.00;101301.34;5323799;33;35484;-83
2021/12/13 16:54:50;;;;;;;31.87;17.80;;;;;;;1.02;91.47;101306.12;5318890;33;35232;-83
2021/12/13 16:57:53;;;;;;;29.83;17.45;;;;;;;1.11;91.37;101306.44;5307366;33;33567;-83
2021/12/13 17:00:57;;;;;;;32.30;18.40;;;;;;;1.00;91.72;101311.53;5306735;33;33917;-83
